Time;durP1;ratioP1;P1;durP2;ratioP2;P2;SDS_P1;SDS_P2;PMS_P1;PMS_P2;Temp;Humidity;BMP_temperature;BMP_pressure;BME280_temperature;BME280_humidity;BME280_pressure;Samples;Min_cycle;Max_cycle;Signal;HPM_P1;HPM_P2
2023/08/30 00:00:21;;;;;;;8.90;8.02;;;14.80;99.90;;;;;;5062656;28;20027;-70
2023/08/30 00:02:47;;;;;;;9.60;8.18;;;14.80;99.90;;;;;;5059861;28;20560;-70
2023/08/30 00:05:13;;;;;;;8.60;7.80;;;14.80;99.90;;;;;;5063064;28;20415;-70
2023/08/30 00:07:39;;;;;;;9.05;8.18;;;14.80;99.90;;;;;;5059667;28;20017;-70
2023/08/30 00:10:06;;;;;;;7.65;6.95;;;14.70;99.90;;;;;;5063682;28;20100;-70
2023/08/30 00:12:32;;;;;;;8.35;7.55;;;14.80;99.90;;;;;;5060570;28;20052;-71
2023/08/30 00:14:57;;;;;;;8.70;7.82;;;14.80;99.90;;;;;;5063753;28;20426;-70
2023/08/30 00:17:23;;;;;;;8.02;7.32;;;14.80;99.90;;;;;;5059814;28;20032;-70
2023/08/30 00:19:50;;;;;;;8.98;8.18;;;14.80;99.90;;;;;;5062708;28;20021;-71
2023/08/30 00:22:15;;;;;;;8.48;7.75;;;14.80;99.90;;;;;;5059963;28;20116;-70
2023/08/30 00:24:41;;;;;;;9.95;8.63;;;14.80;99.90;;;;;;5063610;28;20108;-70
2023/08/30 00:27:06;;;;;;;9.73;8.80;;;14.90;99.90;;;;;;5043281;28;20052;-70
2023/08/30 00:29:32;;;;;;;9.93;8.88;;;14.80;99.90;;;;;;5058709;28;20024;-70
2023/08/30 00:31:58;;;;;;;8.43;7.72;;;14.80;99.90;;;;;;5061779;28;20021;-70
2023/08/30 00:34:23;;;;;;;8.88;8.05;;;14.80;99.90;;;;;;5062578;28;20096;-70
2023/08/30 00:36:49;;;;;;;7.97;7.18;;;14.70;99.90;;;;;;5061528;28;20033;-70
2023/08/30 00:39:15;;;;;;;9.52;7.30;;;14.70;99.90;;;;;;5063801;28;20024;-70
2023/08/30 00:41:40;;;;;;;8.70;7.90;;;14.60;99.90;;;;;;5060846;28;20378;-71
2023/08/30 00:44:06;;;;;;;8.77;7.45;;;14.50;99.90;;;;;;5063709;28;20020;-70
2023/08/30 00:46:33;;;;;;;9.02;7.38;;;14.50;99.90;;;;;;5061745;28;20075;-70
2023/08/30 00:49:00;;;;;;;7.32;6.43;;;14.50;99.90;;;;;;5063392;28;20024;-70
2023/08/30 00:51:26;;;;;;;7.97;7.22;;;14.40;99.90;;;;;;5051462;28;20187;-70
2023/08/30 00:53:53;;;;;;;7.03;6.35;;;14.40;99.90;;;;;;5060126;28;20086;-71
2023/08/30 00:56:19;;;;;;;7.60;6.88;;;14.30;99.90;;;;;;5068722;28;20033;-70
2023/08/30 00:58:45;;;;;;;10.48;7.70;;;14.30;99.90;;;;;;5058225;28;20100;-70
2023/08/30 01:01:11;;;;;;;8.63;7.80;;;14.30;99.90;;;;;;5053207;28;20128;-71
2023/08/30 01:03:37;;;;;;;10.40;8.15;;;14.20;99.90;;;;;;5068282;28;20032;-70
2023/08/30 01:06:03;;;;;;;8.93;8.05;;;14.20;99.90;;;;;;5068757;28;20082;-70
2023/08/30 01:08:29;;;;;;;9.70;8.68;;;14.20;99.90;;;;;;5069121;28;20017;-70
2023/08/30 01:11:26;;;;;;;9.18;8.07;;;14.10;99.90;;;;;;5068263;28;20021;-70
2023/08/30 01:14:08;;;;;;;8.88;7.97;;;14.20;99.90;;;;;;5066359;28;20541;-70
2023/08/30 01:16:35;;;;;;;8.02;6.97;;;14.10;99.90;;;;;;5068259;28;20021;-71
2023/08/30 01:19:13;;;;;;;9.07;7.30;;;14.00;99.90;;;;;;5068250;28;20051;-70
2023/08/30 01:21:49;;;;;;;8.30;7.53;;;14.00;99.90;;;;;;5068752;28;20495;-70
2023/08/30 01:24:41;;;;;;;8.82;6.78;;;14.00;99.90;;;;;;5068609;28;20025;-69
2023/08/30 01:27:15;;;;;;;7.90;7.15;;;13.90;99.90;;;;;;5068153;28;20017;-70
2023/08/30 01:29:44;;;;;;;8.25;7.20;;;13.90;99.90;;;;;;5068213;28;20057;-70
2023/08/30 01:32:11;;;;;;;8.88;7.97;;;13.90;99.90;;;;;;5067605;28;20020;-71
2023/08/30 01:34:38;;;;;;;8.52;7.72;;;13.80;99.90;;;;;;5070975;28;20384;-70
2023/08/30 01:37:09;;;;;;;9.73;7.57;;;13.80;99.90;;;;;;5072558;28;20412;-70
2023/08/30 01:39:40;;;;;;;8.85;7.85;;;13.80;99.90;;;;;;5072149;28;20021;-70
2023/08/30 01:42:07;;;;;;;10.15;8.02;;;13.80;99.90;;;;;;5073043;28;20027;-70
2023/08/30 01:44:33;;;;;;;8.90;7.63;;;13.80;99.90;;;;;;5072206;28;20388;-70
2023/08/30 01:47:00;;;;;;;8.93;8.13;;;13.70;99.90;;;;;;5071952;28;20404;-70
2023/08/30 01:49:28;;;;;;;9.68;8.77;;;13.70;99.90;;;;;;5070512;28;20051;-70
2023/08/30 01:51:54;;;;;;;8.68;7.82;;;13.70;99.90;;;;;;5052740;28;20022;-70
2023/08/30 01:54:21;;;;;;;9.10;8.20;;;13.70;99.90;;;;;;5052114;28;20497;-70
2023/08/30 01:56:46;;;;;;;9.65;8.80;;;13.70;99.90;;;;;;5052823;28;20032;-70
2023/08/30 01:59:12;;;;;;;9.80;8.80;;;13.80;99.90;;;;;;5054099;28;20021;-71
2023/08/30 02:01:38;;;;;;;8.55;7.75;;;13.80;99.90;;;;;;5071758;28;20480;-70
2023/08/30 02:04:04;;;;;;;8.90;8.02;;;13.80;99.90;;;;;;5071940;28;20036;-70
2023/08/30 02:06:42;;;;;;;9.40;8.50;;;13.90;99.90;;;;;;5071941;28;20056;-70
2023/08/30 02:09:32;;;;;;;8.73;7.82;;;13.90;99.90;;;;;;5071792;28;20032;-71
2023/08/30 02:12:03;;;;;;;9.13;8.23;;;13.90;99.90;;;;;;5071461;28;20036;-70
2023/08/30 02:14:30;;;;;;;8.82;7.95;;;14.00;99.90;;;;;;5046527;28;20503;-70
2023/08/30 02:16:56;;;;;;;9.52;8.60;;;14.10;99.90;;;;;;5069779;28;20033;-70
2023/08/30 02:19:22;;;;;;;9.48;8.60;;;14.10;99.90;;;;;;5071267;28;20024;-70
2023/08/30 02:21:48;;;;;;;12.20;9.02;;;14.10;99.90;;;;;;5070407;28;20029;-70
2023/08/30 02:24:14;;;;;;;10.15;8.35;;;14.20;99.90;;;;;;5071617;28;20035;-70
2023/08/30 02:26:40;;;;;;;9.25;8.35;;;14.20;99.90;;;;;;5071028;28;20020;-71
2023/08/30 02:29:05;;;;;;;10.13;9.13;;;14.20;99.90;;;;;;5071661;28;20070;-70
2023/08/30 02:31:31;;;;;;;8.98;8.05;;;14.30;99.90;;;;;;5057586;28;20094;-70
2023/08/30 02:33:57;;;;;;;9.32;8.38;;;14.40;99.90;;;;;;5052232;28;20059;-70
2023/08/30 02:36:22;;;;;;;8.95;8.05;;;14.40;99.90;;;;;;5052228;28;20108;-70
2023/08/30 02:38:48;;;;;;;9.00;7.65;;;14.40;99.90;;;;;;5052251;28;20409;-70
2023/08/30 02:41:13;;;;;;;8.90;8.10;;;14.50;99.90;;;;;;5053338;28;20021;-70
2023/08/30 02:43:39;;;;;;;10.00;9.02;;;14.50;99.90;;;;;;5051643;28;20116;-70
2023/08/30 02:46:05;;;;;;;10.02;9.13;;;14.60;99.90;;;;;;5053140;28;20059;-70
2023/08/30 02:48:34;;;;;;;9.95;8.95;;;14.60;99.90;;;;;;5052730;28;20028;-70
2023/08/30 02:51:00;;;;;;;11.45;10.25;;;14.60;99.90;;;;;;5052565;28;20028;-70
2023/08/30 02:53:25;;;;;;;10.93;9.82;;;14.60;99.90;;;;;;5051215;28;20027;-70
2023/08/30 02:55:51;;;;;;;11.63;10.30;;;14.70;99.90;;;;;;5051759;28;20060;-70
2023/08/30 02:58:16;;;;;;;11.45;10.15;;;14.70;99.90;;;;;;5071134;28;20024;-71
2023/08/30 03:00:42;;;;;;;10.45;9.30;;;14.70;99.90;;;;;;5070092;28;20469;-70
2023/08/30 03:03:08;;;;;;;11.20;10.10;;;14.70;99.90;;;;;;5071113;28;20095;-70
2023/08/30 03:05:34;;;;;;;12.35;11.15;;;14.80;99.90;;;;;;5069989;28;20016;-70
2023/08/30 03:08:00;;;;;;;11.43;10.32;;;14.70;99.90;;;;;;5063376;28;20378;-70
2023/08/30 03:10:25;;;;;;;10.43;9.43;;;14.70;99.90;;;;;;5063679;28;20024;-71
2023/08/30 03:12:51;;;;;;;10.65;9.55;;;14.70;99.90;;;;;;5062812;28;20028;-70
2023/08/30 03:15:17;;;;;;;10.18;9.18;;;14.70;99.90;;;;;;5063942;28;20035;-70
2023/08/30 03:17:42;;;;;;;10.13;9.13;;;14.70;99.90;;;;;;5069784;28;20500;-70
2023/08/30 03:20:08;;;;;;;12.68;11.38;;;14.70;99.90;;;;;;5069930;28;20028;-70
2023/08/30 03:22:34;;;;;;;12.95;10.75;;;14.70;99.90;;;;;;5070468;28;20100;-70
2023/08/30 03:25:02;;;;;;;11.48;10.38;;;14.60;99.90;;;;;;5069179;28;20473;-70
2023/08/30 03:27:28;;;;;;;13.05;11.77;;;14.70;99.90;;;;;;5069344;28;20009;-71
2023/08/30 03:29:55;;;;;;;12.52;11.23;;;14.70;99.90;;;;;;5069157;28;20025;-70
2023/08/30 03:32:21;;;;;;;11.38;10.20;;;14.70;99.90;;;;;;5069608;28;20027;-70
2023/08/30 03:34:47;;;;;;;11.60;10.50;;;14.70;99.90;;;;;;5069013;28;20024;-70
2023/08/30 03:37:16;;;;;;;13.57;11.35;;;14.60;99.90;;;;;;5069719;28;20027;-70
2023/08/30 03:39:42;;;;;;;11.98;10.63;;;14.60;99.90;;;;;;5068624;28;20052;-70
2023/08/30 03:42:08;;;;;;;13.60;12.25;;;14.60;99.90;;;;;;5069366;28;20044;-70
2023/08/30 03:44:33;;;;;;;13.23;11.82;;;14.50;99.90;;;;;;5068247;28;20107;-70
2023/08/30 03:46:59;;;;;;;12.43;11.13;;;14.50;99.90;;;;;;5068063;28;20060;-70
2023/08/30 03:49:25;;;;;;;11.73;10.52;;;14.40;99.90;;;;;;5067963;28;20024;-70
2023/08/30 03:51:50;;;;;;;13.10;11.55;;;14.30;99.90;;;;;;5069605;28;20020;-70
2023/08/30 03:54:16;;;;;;;14.82;11.85;;;14.30;99.90;;;;;;5054659;28;20041;-70
2023/08/30 03:56:45;;;;;;;12.68;11.00;;;14.20;99.90;;;;;;5048242;28;20017;-71
2023/08/30 03:59:12;;;;;;;12.60;10.65;;;14.20;99.90;;;;;;5049771;28;20021;-70
2023/08/30 04:01:38;;;;;;;13.25;11.95;;;14.20;99.90;;;;;;5049576;28;20818;-70
2023/08/30 04:04:04;;;;;;;14.00;12.18;;;14.10;99.90;;;;;;5050436;28;20064;-70
2023/08/30 04:06:30;;;;;;;12.90;11.13;;;14.10;99.90;;;;;;5049889;28;20370;-70
2023/08/30 04:08:56;;;;;;;12.05;10.85;;;14.00;99.90;;;;;;5050125;28;20021;-70
2023/08/30 04:11:21;;;;;;;14.07;12.38;;;14.00;99.90;;;;;;5049240;28;20032;-70
2023/08/30 04:13:47;;;;;;;14.10;11.95;;;13.90;99.90;;;;;;5050201;28;20021;-70
2023/08/30 04:16:12;;;;;;;14.50;12.07;;;13.90;99.90;;;;;;5050159;28;20377;-70
2023/08/30 04:18:38;;;;;;;11.65;10.45;;;13.80;99.90;;;;;;5049575;28;20085;-70
2023/08/30 04:21:06;;;;;;;12.10;10.95;;;13.80;99.90;;;;;;5050116;28;20047;-70
2023/08/30 04:23:31;;;;;;;13.73;12.40;;;13.70;99.90;;;;;;5046696;28;20029;-70
2023/08/30 04:25:57;;;;;;;15.07;13.07;;;13.70;99.90;;;;;;5066927;28;20036;-70
2023/08/30 04:28:22;;;;;;;12.77;11.48;;;13.60;99.90;;;;;;5064714;28;20023;-70
2023/08/30 04:30:48;;;;;;;13.32;12.02;;;13.60;99.90;;;;;;5067002;28;20017;-70
2023/08/30 04:33:14;;;;;;;12.75;11.50;;;13.50;99.90;;;;;;5065879;28;20074;-70
2023/08/30 04:35:39;;;;;;;13.57;10.68;;;13.50;99.90;;;;;;5066759;28;20070;-70
2023/08/30 04:38:05;;;;;;;13.70;12.27;;;13.40;99.90;;;;;;5065851;28;20086;-70
2023/08/30 04:40:32;;;;;;;14.07;12.57;;;13.40;99.90;;;;;;5066315;28;20095;-70
2023/08/30 04:42:58;;;;;;;13.43;11.50;;;13.30;99.90;;;;;;5066275;28;20016;-71
2023/08/30 04:45:24;;;;;;;12.23;10.90;;;13.30;99.90;;;;;;5043292;28;20031;-70
2023/08/30 04:47:50;;;;;;;14.65;11.90;;;13.30;99.90;;;;;;5066149;28;20389;-70
2023/08/30 04:50:16;;;;;;;14.52;12.50;;;13.30;99.90;;;;;;5068884;28;20012;-70
2023/08/30 04:52:42;;;;;;;13.38;11.75;;;13.20;99.90;;;;;;5066844;28;20134;-70
2023/08/30 04:55:08;;;;;;;13.07;11.20;;;13.20;99.90;;;;;;5048174;28;20112;-70
2023/08/30 04:57:34;;;;;;;12.18;10.85;;;13.20;99.90;;;;;;5048864;28;20044;-70
2023/08/30 05:00:04;;;;;;;12.68;11.38;;;13.10;99.90;;;;;;5056879;28;20094;-70
2023/08/30 05:02:29;;;;;;;12.57;11.27;;;13.10;99.90;;;;;;5067617;28;20028;-70
2023/08/30 05:04:55;;;;;;;12.68;10.82;;;13.10;99.90;;;;;;5067976;28;20446;-70
2023/08/30 05:07:20;;;;;;;15.68;12.13;;;13.10;99.90;;;;;;5067681;28;20107;-70
2023/08/30 05:09:46;;;;;;;12.43;11.13;;;13.10;99.90;;;;;;5074169;28;20393;-70
2023/08/30 05:12:12;;;;;;;14.80;12.18;;;13.10;99.90;;;;;;5073115;28;20021;-70
2023/08/30 05:14:37;;;;;;;12.40;11.18;;;13.10;99.90;;;;;;5073812;28;20060;-70
2023/08/30 05:17:03;;;;;;;13.25;11.85;;;13.10;99.90;;;;;;5072912;28;20082;-70
2023/08/30 05:19:29;;;;;;;14.98;12.18;;;13.10;99.90;;;;;;5073991;28;20104;-70
2023/08/30 05:21:54;;;;;;;12.98;11.68;;;13.20;99.90;;;;;;5072513;28;20028;-70
2023/08/30 05:24:23;;;;;;;13.45;11.13;;;13.20;99.90;;;;;;5073003;28;20428;-70
2023/08/30 05:26:49;;;;;;;14.27;11.70;;;13.20;99.90;;;;;;5071593;28;20403;-70
2023/08/30 05:29:15;;;;;;;13.45;11.50;;;13.20;99.90;;;;;;5073583;28;20032;-70
2023/08/30 05:31:41;;;;;;;13.95;12.13;;;13.20;99.90;;;;;;5071073;28;20070;-70
2023/08/30 05:34:06;;;;;;;12.10;10.93;;;13.30;99.90;;;;;;5073618;28;20028;-70
2023/08/30 05:36:32;;;;;;;13.05;11.18;;;13.30;99.90;;;;;;5071380;28;20025;-71
2023/08/30 05:38:58;;;;;;;13.25;11.90;;;13.30;99.90;;;;;;5073236;28;20029;-70
2023/08/30 05:41:23;;;;;;;12.63;11.23;;;13.40;99.90;;;;;;5069582;28;20143;-70
2023/08/30 05:43:49;;;;;;;13.32;12.02;;;13.40;99.90;;;;;;5073355;28;20028;-70
2023/08/30 05:46:15;;;;;;;13.20;11.57;;;13.40;99.90;;;;;;5071497;28;20024;-70
2023/08/30 05:48:41;;;;;;;14.30;11.93;;;13.50;99.90;;;;;;5072622;28;20044;-70
2023/08/30 05:51:07;;;;;;;14.10;12.60;;;13.60;99.90;;;;;;5072149;28;20469;-70
2023/08/30 05:53:32;;;;;;;18.27;11.32;;;13.60;99.90;;;;;;5074237;28;20023;-70
2023/08/30 05:55:58;;;;;;;15.25;12.20;;;13.60;99.90;;;;;;5073667;28;20135;-70
2023/08/30 05:58:23;;;;;;;15.25;12.23;;;13.70;99.90;;;;;;5048595;28;20466;-69
2023/08/30 06:00:49;;;;;;;13.43;11.27;;;13.80;99.90;;;;;;5051634;28;20024;-70
2023/08/30 06:03:15;;;;;;;14.25;12.85;;;13.90;99.90;;;;;;5055799;28;20075;-71
2023/08/30 06:05:42;;;;;;;14.75;13.27;;;14.00;99.90;;;;;;5054385;28;20021;-70
2023/08/30 06:08:08;;;;;;;16.55;13.15;;;14.20;99.90;;;;;;5073885;28;20078;-70
2023/08/30 06:10:35;;;;;;;14.82;13.30;;;14.40;99.90;;;;;;5073842;28;20044;-70
2023/08/30 06:13:00;;;;;;;15.95;14.43;;;14.50;99.90;;;;;;5074465;28;20012;-70
2023/08/30 06:15:26;;;;;;;18.48;16.70;;;14.70;99.90;;;;;;5073315;28;20024;-70
2023/08/30 06:17:52;;;;;;;17.17;15.32;;;14.80;99.90;;;;;;5074045;28;20034;-70
2023/08/30 06:20:17;;;;;;;19.55;14.75;;;14.90;99.90;;;;;;5069607;28;20028;-70
2023/08/30 06:22:43;;;;;;;14.70;13.35;;;15.00;99.90;;;;;;5069777;28;20020;-70
2023/08/30 06:25:09;;;;;;;18.92;15.07;;;15.00;99.90;;;;;;5069714;28;20028;-70
2023/08/30 06:27:45;;;;;;;15.43;13.93;;;15.10;99.90;;;;;;5070443;28;20100;-71
2023/08/30 06:30:11;;;;;;;14.30;13.00;;;15.20;99.90;;;;;;5067919;28;20357;-70
2023/08/30 06:32:37;;;;;;;15.93;14.20;;;15.20;99.90;;;;;;5069803;28;20021;-70
2023/08/30 06:35:04;;;;;;;16.38;14.77;;;15.20;99.90;;;;;;5068236;28;20019;-70
2023/08/30 06:37:29;;;;;;;13.43;12.02;;;15.30;99.90;;;;;;5069649;28;20086;-71
2023/08/30 06:39:55;;;;;;;15.50;13.82;;;15.40;99.90;;;;;;5068914;28;20564;-70
2023/08/30 06:42:20;;;;;;;15.32;13.77;;;15.40;99.90;;;;;;5069819;28;20028;-71
2023/08/30 06:44:46;;;;;;;14.35;13.02;;;15.50;99.90;;;;;;5068373;28;20473;-71
2023/08/30 06:47:12;;;;;;;14.27;12.88;;;15.50;99.90;;;;;;5069491;28;20043;-71
2023/08/30 06:49:37;;;;;;;12.27;11.13;;;15.50;99.90;;;;;;5067206;28;20024;-70
2023/08/30 06:52:04;;;;;;;13.48;11.80;;;15.60;99.90;;;;;;5061123;28;20136;-70
2023/08/30 06:54:34;;;;;;;15.27;13.45;;;15.60;99.90;;;;;;5050769;28;20048;-70
2023/08/30 06:57:00;;;;;;;12.40;11.13;;;15.60;99.90;;;;;;5050925;28;20040;-71
2023/08/30 06:59:27;;;;;;;14.07;12.73;;;15.70;99.90;;;;;;5050304;28;20025;-70
2023/08/30 07:01:52;;;;;;;14.25;12.30;;;15.70;99.90;;;;;;5050761;28;20443;-70
2023/08/30 07:04:18;;;;;;;14.98;12.93;;;15.70;99.90;;;;;;5049243;28;20053;-70
2023/08/30 07:06:44;;;;;;;13.50;12.13;;;15.70;99.90;;;;;;5050897;28;20025;-71
2023/08/30 07:09:11;;;;;;;14.27;12.88;;;15.70;99.90;;;;;;5051736;28;20083;-70
2023/08/30 07:11:37;;;;;;;14.13;12.70;;;15.70;99.90;;;;;;5050989;28;20025;-71
2023/08/30 07:14:04;;;;;;;14.63;13.13;;;15.80;99.90;;;;;;5051937;28;20470;-70
2023/08/30 07:16:31;;;;;;;14.32;12.82;;;15.80;99.90;;;;;;5051175;28;20489;-72
2023/08/30 07:18:57;;;;;;;15.07;13.57;;;15.90;99.90;;;;;;5052165;28;20017;-71
2023/08/30 07:21:23;;;;;;;14.60;13.07;;;15.90;99.90;;;;;;5051297;28;20182;-71
2023/08/30 07:23:48;;;;;;;13.45;12.05;;;15.90;99.90;;;;;;5052738;28;20304;-70
2023/08/30 07:26:14;;;;;;;14.45;12.93;;;15.90;99.90;;;;;;5052079;28;20051;-71
2023/08/30 07:28:39;;;;;;;15.82;13.27;;;15.90;99.90;;;;;;5052933;28;20024;-71
2023/08/30 07:31:05;;;;;;;16.15;12.35;;;15.80;99.90;;;;;;5051460;28;20485;-71
2023/08/30 07:33:31;;;;;;;13.98;12.68;;;15.70;99.90;;;;;;5052008;28;20071;-71
2023/08/30 07:35:57;;;;;;;18.25;14.52;;;15.70;99.90;;;;;;5051503;28;20436;-71
2023/08/30 07:38:23;;;;;;;18.05;14.48;;;15.70;99.90;;;;;;5052490;28;20074;-71
2023/08/30 07:40:48;;;;;;;13.55;12.02;;;15.70;99.90;;;;;;5051138;28;20021;-71
2023/08/30 07:43:14;;;;;;;15.60;12.77;;;15.60;99.90;;;;;;5052257;28;20095;-70
2023/08/30 07:45:39;;;;;;;15.80;12.95;;;15.60;99.90;;;;;;5050908;28;20039;-71
2023/08/30 07:48:05;;;;;;;13.68;12.30;;;15.50;99.90;;;;;;5051844;28;20048;-70
2023/08/30 07:50:31;;;;;;;18.52;13.57;;;15.50;99.90;;;;;;5059492;28;20027;-72
2023/08/30 07:52:56;;;;;;;14.02;12.48;;;15.50;99.90;;;;;;5069141;28;20024;-70
2023/08/30 07:55:22;;;;;;;16.75;13.70;;;15.40;99.90;;;;;;5068963;28;20048;-70
2023/08/30 07:57:47;;;;;;;16.10;13.13;;;15.40;99.90;;;;;;5068722;28;20043;-70
2023/08/30 08:00:13;;;;;;;18.73;14.80;;;15.40;99.90;;;;;;5069231;28;20032;-70
2023/08/30 08:02:40;;;;;;;18.52;13.90;;;15.40;99.90;;;;;;5067725;28;20495;-70
2023/08/30 08:05:06;;;;;;;17.48;14.38;;;15.40;99.90;;;;;;5069156;28;20335;-70
2023/08/30 08:07:32;;;;;;;20.80;14.43;;;15.30;99.90;;;;;;5068313;28;20090;-70
2023/08/30 08:09:58;;;;;;;19.73;15.30;;;15.30;99.90;;;;;;5069082;28;20024;-70
2023/08/30 08:12:23;;;;;;;18.30;12.85;;;15.30;99.90;;;;;;5067825;28;20517;-70
2023/08/30 08:14:49;;;;;;;13.30;11.38;;;15.30;99.90;;;;;;5069089;28;20138;-70
2023/08/30 08:17:14;;;;;;;15.05;12.77;;;15.20;99.90;;;;;;5066642;28;20031;-70
2023/08/30 08:19:42;;;;;;;15.23;11.80;;;15.20;99.90;;;;;;5066749;28;20017;-70
2023/08/30 08:22:08;;;;;;;15.35;13.32;;;15.20;99.90;;;;;;5067719;28;20017;-70
2023/08/30 08:24:33;;;;;;;14.13;11.45;;;15.20;99.90;;;;;;5068330;28;20028;-70
2023/08/30 08:27:01;;;;;;;12.10;9.85;;;15.20;99.90;;;;;;5067281;28;20369;-70
2023/08/30 08:29:27;;;;;;;18.25;12.35;;;15.20;99.90;;;;;;5067909;28;20524;-70
2023/08/30 08:31:53;;;;;;;13.93;12.27;;;15.20;99.90;;;;;;5066457;28;20369;-70
2023/08/30 08:34:19;;;;;;;11.80;10.65;;;15.30;99.90;;;;;;5068235;28;20029;-69
2023/08/30 08:36:44;;;;;;;13.38;11.55;;;15.30;99.90;;;;;;5066861;28;20541;-70
2023/08/30 08:39:10;;;;;;;12.82;9.98;;;15.40;99.90;;;;;;5068071;28;20059;-70
2023/08/30 08:41:42;;;;;;;12.85;10.57;;;15.40;99.90;;;;;;5066305;28;20028;-70
2023/08/30 08:44:09;;;;;;;14.88;11.57;;;15.50;99.90;;;;;;5067308;28;20024;-69
2023/08/30 08:46:36;;;;;;;13.65;11.27;;;15.50;99.90;;;;;;5064829;28;20473;-69
2023/08/30 08:49:15;;;;;;;14.38;12.90;;;15.50;99.90;;;;;;5066264;28;20024;-69
2023/08/30 08:51:42;;;;;;;15.30;12.95;;;15.60;99.90;;;;;;5067914;28;20031;-69
2023/08/30 08:54:09;;;;;;;17.75;15.15;;;15.60;99.90;;;;;;5055338;28;20063;-69
2023/08/30 08:56:35;;;;;;;16.58;13.88;;;15.70;99.90;;;;;;5048962;28;20076;-69
2023/08/30 08:59:01;;;;;;;14.68;13.18;;;15.70;99.90;;;;;;5049594;28;20128;-69
2023/08/30 09:01:28;;;;;;;13.82;12.50;;;15.70;99.90;;;;;;5048555;28;20029;-69
2023/08/30 09:03:53;;;;;;;17.90;14.50;;;15.70;99.90;;;;;;5048957;28;20025;-70
2023/08/30 09:06:20;;;;;;;16.70;15.02;;;15.80;99.90;;;;;;5048966;28;20382;-70
2023/08/30 09:08:46;;;;;;;18.20;13.70;;;15.80;99.90;;;;;;5049082;28;20446;-69
2023/08/30 09:11:11;;;;;;;16.38;14.48;;;15.80;99.90;;;;;;5049211;28;20032;-69
2023/08/30 09:13:37;;;;;;;15.20;13.63;;;15.80;99.90;;;;;;5049524;28;20509;-69
2023/08/30 09:16:10;;;;;;;14.55;13.15;;;15.80;99.90;;;;;;5048784;28;20091;-70
2023/08/30 09:18:36;;;;;;;13.68;12.27;;;15.80;99.90;;;;;;5049247;28;20025;-69
2023/08/30 09:21:06;;;;;;;13.02;11.05;;;15.80;99.90;;;;;;5048924;28;20029;-70
2023/08/30 09:23:33;;;;;;;12.02;10.85;;;15.80;99.90;;;;;;5049180;28;20151;-69
2023/08/30 09:25:59;;;;;;;12.85;11.52;;;15.80;99.90;;;;;;5049337;28;20025;-69
2023/08/30 09:28:24;;;;;;;12.52;11.25;;;15.80;99.90;;;;;;5049989;28;20027;-70
2023/08/30 09:30:53;;;;;;;12.20;10.23;;;15.80;99.90;;;;;;5049153;28;20021;-69
2023/08/30 09:33:21;;;;;;;9.40;8.38;;;15.80;99.90;;;;;;5050562;28;20024;-69
2023/08/30 09:35:47;;;;;;;12.07;9.77;;;15.80;99.90;;;;;;5049467;28;20027;-69
2023/08/30 09:38:17;;;;;;;10.82;9.68;;;15.80;99.90;;;;;;5051173;28;20017;-69
2023/08/30 09:40:44;;;;;;;11.18;10.00;;;15.90;99.90;;;;;;5049643;28;20102;-70
2023/08/30 09:43:10;;;;;;;10.88;9.77;;;15.90;99.90;;;;;;5051796;28;20481;-69
2023/08/30 09:45:36;;;;;;;11.07;9.30;;;15.90;99.90;;;;;;5049620;28;20040;-69
2023/08/30 09:48:02;;;;;;;10.98;8.60;;;16.00;99.90;;;;;;5051805;28;20349;-69
2023/08/30 09:50:31;;;;;;;10.73;9.73;;;16.00;99.90;;;;;;5058769;28;20440;-69
2023/08/30 09:52:57;;;;;;;10.38;8.95;;;16.10;99.90;;;;;;5054649;28;20120;-70
2023/08/30 09:55:23;;;;;;;10.38;9.40;;;16.10;99.90;;;;;;5069543;28;20529;-69
2023/08/30 09:57:49;;;;;;;9.48;8.57;;;16.20;99.90;;;;;;5071211;28;20027;-69
2023/08/30 10:00:15;;;;;;;8.88;8.02;;;16.20;99.90;;;;;;5071742;28;20020;-70
2023/08/30 10:02:43;;;;;;;8.38;7.63;;;16.30;99.90;;;;;;5054328;28;20021;-69
2023/08/30 10:05:10;;;;;;;9.82;8.93;;;16.40;99.90;;;;;;5052115;28;20121;-69
2023/08/30 10:07:37;;;;;;;8.60;7.60;;;16.40;99.90;;;;;;5051785;28;20036;-70
2023/08/30 10:10:06;;;;;;;10.82;9.40;;;16.50;99.90;;;;;;5051933;28;20381;-69
2023/08/30 10:12:32;;;;;;;10.50;9.60;;;16.70;99.90;;;;;;5051127;28;20020;-70
2023/08/30 10:14:58;;;;;;;10.27;9.27;;;16.70;99.90;;;;;;5062807;28;20036;-69
2023/08/30 10:17:31;;;;;;;9.65;8.85;;;16.70;99.90;;;;;;5053070;28;20025;-70
2023/08/30 10:19:57;;;;;;;10.43;9.52;;;16.80;99.90;;;;;;5051626;28;20512;-70
2023/08/30 10:22:24;;;;;;;10.18;9.15;;;16.90;99.90;;;;;;5051076;28;20104;-70
2023/08/30 10:25:16;;;;;;;8.98;8.18;;;16.90;99.90;;;;;;5051479;28;20029;-70
2023/08/30 10:27:45;;;;;;;10.20;9.23;;;17.00;99.90;;;;;;5050722;28;20039;-70
2023/08/30 10:30:12;;;;;;;10.23;9.43;;;17.10;99.90;;;;;;5055314;28;20036;-70
2023/08/30 10:32:41;;;;;;;10.85;9.75;;;17.10;99.90;;;;;;5051340;28;20029;-69
2023/08/30 10:35:10;;;;;;;11.25;9.95;;;17.20;99.90;;;;;;5051491;28;20354;-69
2023/08/30 10:37:35;;;;;;;10.10;9.20;;;17.20;99.90;;;;;;5050979;28;20032;-70
2023/08/30 10:40:05;;;;;;;11.80;10.27;;;17.30;99.90;;;;;;5054726;28;20077;-70
2023/08/30 10:42:32;;;;;;;10.80;9.90;;;17.30;99.90;;;;;;5070667;28;20115;-70
2023/08/30 10:45:05;;;;;;;12.48;11.38;;;17.40;99.90;;;;;;5070453;28;20134;-70
2023/08/30 10:47:35;;;;;;;13.95;12.85;;;17.60;99.90;;;;;;5058779;28;20673;-70
2023/08/30 10:50:08;;;;;;;13.20;12.00;;;17.90;99.90;;;;;;5057156;28;20086;-70
2023/08/30 10:52:33;;;;;;;13.75;12.65;;;18.10;99.90;;;;;;5070256;28;20100;-70
2023/08/30 10:55:11;;;;;;;12.93;11.82;;;18.30;99.90;;;;;;5057583;28;20119;-69
2023/08/30 10:57:38;;;;;;;19.30;14.82;;;18.50;99.90;;;;;;5069891;28;20024;-70
2023/08/30 11:00:13;;;;;;;16.92;13.13;;;18.60;99.90;;;;;;5071167;28;20131;-70
2023/08/30 11:02:44;;;;;;;13.77;12.25;;;18.70;99.90;;;;;;5070327;28;20543;-70
2023/08/30 11:05:09;;;;;;;14.40;12.68;;;18.80;99.90;;;;;;5070137;28;20064;-70
2023/08/30 11:07:35;;;;;;;14.60;13.20;;;18.90;99.90;;;;;;5069248;28;20028;-69
2023/08/30 11:10:03;;;;;;;12.18;11.18;;;19.00;99.90;;;;;;5070233;28;20059;-70
2023/08/30 11:12:30;;;;;;;20.35;13.00;;;19.10;99.90;;;;;;5068432;28;20048;-70
2023/08/30 11:14:56;;;;;;;13.73;12.45;;;19.20;99.90;;;;;;5069909;28;20052;-70
2023/08/30 11:17:22;;;;;;;12.88;11.80;;;19.20;99.90;;;;;;5068346;28;20063;-70
2023/08/30 11:19:56;;;;;;;13.25;12.05;;;19.20;99.90;;;;;;5069558;28;20025;-70
2023/08/30 11:22:22;;;;;;;13.07;11.98;;;19.20;99.90;;;;;;5067897;28;20048;-70
2023/08/30 11:24:50;;;;;;;10.57;9.77;;;19.10;99.90;;;;;;5069486;28;20070;-71
2023/08/30 11:27:20;;;;;;;10.23;9.32;;;19.00;99.90;;;;;;5068126;28;20049;-70
2023/08/30 11:29:45;;;;;;;9.45;8.48;;;18.90;99.90;;;;;;5068866;28;20027;-70
2023/08/30 11:32:11;;;;;;;8.70;8.00;;;18.90;99.90;;;;;;5069517;28;20016;-70
2023/08/30 11:34:36;;;;;;;6.20;5.70;;;18.90;99.90;;;;;;5067266;28;20028;-70
2023/08/30 11:37:02;;;;;;;7.15;6.47;;;18.80;99.90;;;;;;5068017;28;20100;-70
2023/08/30 11:39:31;;;;;;;8.00;7.30;;;18.80;99.90;;;;;;5068033;28;20133;-70
2023/08/30 11:41:56;;;;;;;6.55;5.95;;;18.80;99.90;;;;;;5068943;28;20021;-70
2023/08/30 11:44:24;;;;;;;7.78;7.05;;;18.90;99.90;;;;;;5067963;28;20047;-70
2023/08/30 11:46:58;;;;;;;6.80;5.93;;;19.00;99.90;;;;;;5069284;28;20379;-70
2023/08/30 11:49:24;;;;;;;6.50;5.75;;;19.00;99.90;;;;;;5067984;28;20017;-70
2023/08/30 11:51:52;;;;;;;6.40;5.78;;;19.10;99.90;;;;;;5069640;28;20028;-70
2023/08/30 11:54:20;;;;;;;5.25;4.72;;;19.10;99.90;;;;;;5067949;28;20403;-70
2023/08/30 11:56:46;;;;;;;6.75;5.63;;;19.00;99.90;;;;;;5068980;28;20504;-70
2023/08/30 11:59:23;;;;;;;6.95;5.78;;;19.00;99.90;;;;;;5068815;28;20117;-71
2023/08/30 12:01:52;;;;;;;8.88;5.97;;;19.00;99.90;;;;;;5069258;28;20013;-70
2023/08/30 12:04:18;;;;;;;7.75;5.40;;;18.90;99.90;;;;;;5068109;28;20473;-70
2023/08/30 12:06:50;;;;;;;7.82;5.20;;;18.80;99.90;;;;;;5068818;28;20038;-70
2023/08/30 12:09:16;;;;;;;7.28;5.13;;;18.80;99.90;;;;;;5067513;28;20039;-70
2023/08/30 12:11:41;;;;;;;5.18;3.80;;;18.90;99.90;;;;;;5067095;28;20032;-70
2023/08/30 12:14:07;;;;;;;4.50;2.60;;;18.90;99.90;;;;;;5068085;28;20032;-69
2023/08/30 12:16:32;;;;;;;6.50;3.25;;;19.00;99.90;;;;;;5068470;28;20050;-71
2023/08/30 12:19:10;;;;;;;5.75;2.53;;;18.90;99.90;;;;;;5067352;28;20039;-70
2023/08/30 12:21:41;;;;;;;5.53;2.40;;;18.90;99.90;;;;;;5068873;28;20032;-70
2023/08/30 12:24:06;;;;;;;3.67;2.00;;;18.80;99.90;;;;;;5068125;28;20016;-70
2023/08/30 12:26:32;;;;;;;7.00;2.53;;;18.80;99.90;;;;;;5056364;28;20021;-70
2023/08/30 12:28:58;;;;;;;6.47;2.30;;;18.90;99.90;;;;;;5056046;28;20028;-70
2023/08/30 12:31:24;;;;;;;7.75;2.97;;;18.90;99.90;;;;;;5048868;28;20028;-70